Time;durP1;ratioP1;P1;durP2;ratioP2;P2;SDS_P1;SDS_P2;PMS_P1;PMS_P2;Temp;Humidity;BMP_temperature;BMP_pressure;BME280_temperature;BME280_humidity;BME280_pressure;Samples;Min_cycle;Max_cycle;Signal;HPM_P1;HPM_P2
2021/11/30 00:01:20;;;;;;;4.43;3.53;;;2.40;78.00;;;;;;5048038;28;20033;-67
2021/11/30 00:03:46;;;;;;;3.78;3.22;;;2.30;78.00;;;;;;5046257;28;20032;-67
2021/11/30 00:06:11;;;;;;;4.72;3.53;;;2.40;78.40;;;;;;5047531;28;20033;-68
2021/11/30 00:08:38;;;;;;;4.20;3.50;;;2.40;78.70;;;;;;5046706;28;20396;-67
2021/11/30 00:11:06;;;;;;;3.60;3.30;;;2.30;78.70;;;;;;5041679;28;20044;-65
2021/11/30 00:13:33;;;;;;;4.20;3.28;;;2.30;78.80;;;;;;5046638;28;20033;-67
2021/11/30 00:15:59;;;;;;;4.65;3.45;;;2.30;78.80;;;;;;5046211;28;20047;-67
2021/11/30 00:18:26;;;;;;;4.70;3.33;;;2.30;78.90;;;;;;5044944;28;20040;-66
2021/11/30 00:20:53;;;;;;;4.55;3.40;;;2.30;79.00;;;;;;5045268;28;20044;-67
2021/11/30 00:23:19;;;;;;;8.30;3.92;;;2.30;79.00;;;;;;5045069;28;20037;-66
2021/11/30 00:25:45;;;;;;;4.93;3.90;;;2.30;79.10;;;;;;5040562;28;20037;-66
2021/11/30 00:28:11;;;;;;;3.88;3.35;;;2.30;79.20;;;;;;5041758;28;20049;-66
2021/11/30 00:30:40;;;;;;;4.55;3.45;;;2.30;79.20;;;;;;5039827;28;20029;-67
2021/11/30 00:33:06;;;;;;;6.38;3.78;;;2.30;79.20;;;;;;5041108;28;20086;-66
2021/11/30 00:35:32;;;;;;;4.97;3.80;;;2.40;79.50;;;;;;5039827;28;20040;-66
2021/11/30 00:37:58;;;;;;;5.22;3.70;;;2.30;79.20;;;;;;5039104;28;20032;-66
2021/11/30 00:40:24;;;;;;;4.38;3.50;;;2.30;79.20;;;;;;5036605;28;20028;-66
2021/11/30 00:42:50;;;;;;;4.97;3.80;;;2.30;79.20;;;;;;5039659;28;20593;-67
2021/11/30 00:45:19;;;;;;;4.13;3.42;;;2.30;79.20;;;;;;5036359;28;20047;-67
2021/11/30 00:50:19;;;;;;;5.20;3.40;;;2.40;79.30;;;;;;5035367;28;20127;-66
2021/11/30 00:52:46;;;;;;;3.85;3.10;;;2.40;79.30;;;;;;5040157;28;20106;-66
2021/11/30 00:55:11;;;;;;;3.70;2.85;;;2.40;79.20;;;;;;5036993;28;20033;-66
2021/11/30 00:57:39;;;;;;;3.13;2.70;;;2.40;79.20;;;;;;5035549;28;20045;-65
2021/11/30 01:00:11;;;;;;;3.17;2.88;;;2.40;79.10;;;;;;5038611;28;20025;-70
2021/11/30 01:02:37;;;;;;;3.10;2.63;;;2.40;79.20;;;;;;5037707;28;20556;-69
2021/11/30 01:05:04;;;;;;;3.17;2.75;;;2.40;79.10;;;;;;5037830;28;20045;-68
2021/11/30 01:07:30;;;;;;;3.00;2.60;;;2.50;79.00;;;;;;5045322;28;20064;-66
2021/11/30 01:09:56;;;;;;;4.32;2.85;;;2.50;79.00;;;;;;5036318;28;20416;-68
2021/11/30 01:12:21;;;;;;;3.20;2.90;;;2.50;79.90;;;;;;5035597;28;20044;-68
2021/11/30 01:14:47;;;;;;;3.92;2.90;;;2.50;79.00;;;;;;5040834;28;20148;-68
2021/11/30 01:17:13;;;;;;;3.00;2.70;;;2.50;78.90;;;;;;5038137;28;20041;-67
2021/11/30 01:19:39;;;;;;;2.97;2.65;;;2.50;78.80;;;;;;5040071;28;20052;-69
2021/11/30 01:22:05;;;;;;;2.92;2.60;;;2.50;78.80;;;;;;5038167;28;20037;-68
2021/11/30 01:24:31;;;;;;;2.75;2.50;;;2.50;78.80;;;;;;5039402;28;20064;-69
2021/11/30 01:26:56;;;;;;;2.65;2.30;;;2.50;78.90;;;;;;5044101;28;20059;-68
2021/11/30 01:29:22;;;;;;;2.45;2.25;;;2.50;79.90;;;;;;5039793;28;20112;-68
2021/11/30 01:31:48;;;;;;;2.85;2.55;;;2.50;79.00;;;;;;5041122;28;20029;-68
2021/11/30 01:34:14;;;;;;;2.90;2.47;;;2.50;78.90;;;;;;5036506;28;20099;-68
2021/11/30 01:36:39;;;;;;;2.45;2.25;;;2.50;78.80;;;;;;5040656;28;20135;-69
2021/11/30 01:39:05;;;;;;;2.78;2.33;;;2.50;78.90;;;;;;5044023;28;20033;-68
2021/11/30 01:41:34;;;;;;;2.60;2.40;;;2.50;78.90;;;;;;5044066;28;20116;-68
2021/11/30 01:44:03;;;;;;;2.45;2.25;;;2.50;78.90;;;;;;5040483;28;20029;-66
2021/11/30 01:46:40;;;;;;;2.45;2.25;;;2.50;78.90;;;;;;5041985;28;20048;-68
2021/11/30 01:49:23;;;;;;;4.80;2.10;;;2.50;79.00;;;;;;5036649;28;20312;-68
2021/11/30 01:51:49;;;;;;;4.63;2.30;;;2.50;78.90;;;;;;5039620;28;20714;-67
2021/11/30 01:54:14;;;;;;;2.45;2.25;;;2.50;78.80;;;;;;5041577;28;20043;-66
2021/11/30 01:56:40;;;;;;;1.88;1.77;;;2.50;78.80;;;;;;5044408;28;20029;-68
2021/11/30 01:59:06;;;;;;;4.75;2.20;;;2.50;78.80;;;;;;5036800;28;20096;-69
2021/11/30 02:01:32;;;;;;;2.10;1.90;;;2.50;78.80;;;;;;5038173;28;20740;-65
2021/11/30 02:03:58;;;;;;;2.30;2.10;;;2.50;78.70;;;;;;5034822;28;20517;-66
2021/11/30 02:06:24;;;;;;;2.10;1.90;;;2.50;78.70;;;;;;5035604;28;20691;-66
2021/11/30 02:08:50;;;;;;;1.80;1.70;;;2.50;78.60;;;;;;5039925;28;20053;-68
2021/11/30 02:11:15;;;;;;;2.28;1.60;;;2.50;78.60;;;;;;5037503;28;20037;-67
2021/11/30 02:13:41;;;;;;;2.03;1.83;;;2.50;78.60;;;;;;5039729;28;20120;-67
2021/11/30 02:16:07;;;;;;;3.40;1.85;;;2.50;78.60;;;;;;5040176;28;20633;-66
2021/11/30 02:18:39;;;;;;;2.25;1.80;;;2.60;78.70;;;;;;5036056;28;20086;-67
2021/11/30 02:21:07;;;;;;;2.85;2.00;;;2.50;78.60;;;;;;5040847;28;20033;-65
2021/11/30 02:24:15;;;;;;;2.42;1.65;;;2.50;78.60;;;;;;5042224;28;20041;-66
2021/11/30 02:26:21;;;;;;;3.20;1.90;;;2.60;78.60;;;;;;5035840;28;20111;-66
2021/11/30 02:28:50;;;;;;;2.70;2.40;;;2.50;78.60;;;;;;5045114;28;20535;-66
2021/11/30 02:31:19;;;;;;;2.55;2.00;;;2.60;78.60;;;;;;5042734;28;20497;-67
2021/11/30 02:33:46;;;;;;;3.53;2.35;;;2.50;78.50;;;;;;5036663;28;20044;-65
2021/11/30 02:36:30;;;;;;;2.55;2.35;;;2.50;78.50;;;;;;5038654;28;20040;-67
2021/11/30 02:39:01;;;;;;;3.67;2.10;;;2.50;78.60;;;;;;5036858;28;20060;-66
2021/11/30 02:41:27;;;;;;;2.53;2.00;;;2.50;78.50;;;;;;5043446;28;20029;-66
2021/11/30 02:43:54;;;;;;;2.58;1.75;;;2.50;78.60;;;;;;5043435;28;20037;-66
2021/11/30 02:46:33;;;;;;;2.72;2.00;;;2.50;78.50;;;;;;5045041;28;20029;-66
2021/11/30 02:49:00;;;;;;;3.20;2.15;;;2.50;78.50;;;;;;5044758;28;20067;-69
2021/11/30 02:51:27;;;;;;;5.43;2.05;;;2.50;78.50;;;;;;5042621;28;20040;-65
2021/11/30 02:53:54;;;;;;;2.75;2.00;;;2.50;78.50;;;;;;5043028;28;20045;-66
2021/11/30 02:56:20;;;;;;;2.45;1.95;;;2.50;78.50;;;;;;5045402;28;20044;-66
2021/11/30 02:58:46;;;;;;;2.05;1.80;;;2.50;78.40;;;;;;5044163;28;20087;-66
2021/11/30 03:01:12;;;;;;;2.35;1.85;;;2.50;78.40;;;;;;5039578;28;20044;-66
2021/11/30 03:03:38;;;;;;;2.90;2.20;;;2.50;78.30;;;;;;5044556;28;20045;-66
2021/11/30 03:06:04;;;;;;;2.03;1.70;;;2.50;78.30;;;;;;5038308;28;20416;-67
2021/11/30 03:08:30;;;;;;;2.15;1.95;;;2.50;78.40;;;;;;5041267;28;20033;-66
2021/11/30 03:10:56;;;;;;;4.57;1.85;;;2.50;78.30;;;;;;5039506;28;20045;-67
2021/11/30 03:13:22;;;;;;;4.53;2.00;;;2.40;78.30;;;;;;5042995;28;20029;-66
2021/11/30 03:15:54;;;;;;;2.35;2.15;;;2.50;78.30;;;;;;5041796;28;20075;-66
2021/11/30 03:18:23;;;;;;;1.88;1.73;;;2.40;78.30;;;;;;5043032;28;20094;-66
2021/11/30 03:20:48;;;;;;;2.80;2.05;;;2.40;78.30;;;;;;5042985;28;20041;-66
2021/11/30 03:23:14;;;;;;;3.03;1.98;;;2.40;78.10;;;;;;5043489;28;20040;-66
2021/11/30 03:25:42;;;;;;;3.72;1.98;;;2.40;78.20;;;;;;5045394;28;20040;-66
2021/11/30 03:28:08;;;;;;;2.58;1.80;;;2.40;78.30;;;;;;5045389;28;20037;-66
2021/11/30 03:30:36;;;;;;;2.65;2.10;;;2.40;78.10;;;;;;5044708;28;20033;-67
2021/11/30 03:35:46;;;;;;;2.30;1.52;;;2.40;78.30;;;;;;5040591;28;20040;-66
2021/11/30 03:38:12;;;;;;;3.70;2.30;;;2.40;78.30;;;;;;5040001;28;20031;-67
2021/11/30 03:40:38;;;;;;;3.22;1.90;;;2.30;78.20;;;;;;5042223;28;20033;-67
2021/11/30 03:43:03;;;;;;;2.78;1.77;;;2.30;78.20;;;;;;5042808;28;20037;-66
2021/11/30 03:45:29;;;;;;;4.20;1.90;;;2.30;78.30;;;;;;5039387;28;20076;-67
2021/11/30 03:47:55;;;;;;;3.40;2.08;;;2.30;78.30;;;;;;5044614;28;20129;-66
2021/11/30 03:50:20;;;;;;;4.40;2.30;;;2.40;78.30;;;;;;5043984;28;20159;-66
2021/11/30 03:52:46;;;;;;;4.97;2.13;;;2.40;78.20;;;;;;5043198;28;20036;-66
2021/11/30 03:55:12;;;;;;;2.72;2.00;;;2.30;78.20;;;;;;5038611;28;20788;-66
2021/11/30 03:57:37;;;;;;;6.22;2.20;;;2.30;78.30;;;;;;5044922;28;20063;-66
2021/11/30 04:00:08;;;;;;;3.72;2.20;;;2.40;79.10;;;;;;5041750;28;20048;-66
2021/11/30 04:02:33;;;;;;;3.47;2.33;;;2.40;78.20;;;;;;5040747;28;20591;-66
2021/11/30 04:04:59;;;;;;;3.92;2.30;;;2.30;78.10;;;;;;5042193;28;20037;-66
2021/11/30 04:07:25;;;;;;;3.30;2.42;;;2.30;78.10;;;;;;5041447;28;20037;-66
2021/11/30 04:09:51;;;;;;;3.47;2.45;;;2.30;78.10;;;;;;5037348;28;20042;-66
2021/11/30 04:12:17;;;;;;;2.92;2.30;;;2.30;78.10;;;;;;5037142;28;20060;-66
2021/11/30 04:14:42;;;;;;;4.55;2.45;;;2.30;78.20;;;;;;5041816;28;20496;-67
2021/11/30 04:17:08;;;;;;;2.63;2.40;;;2.30;78.30;;;;;;5039343;28;20053;-66
2021/11/30 04:19:34;;;;;;;5.13;2.70;;;2.30;78.20;;;;;;5041179;28;20037;-66
2021/11/30 04:22:00;;;;;;;4.07;2.63;;;2.30;78.30;;;;;;5038782;28;20021;-69
2021/11/30 04:24:25;;;;;;;3.63;2.60;;;2.20;78.30;;;;;;5040677;28;20025;-66
2021/11/30 04:26:51;;;;;;;5.25;3.10;;;2.30;78.30;;;;;;5040992;28;20068;-66
2021/11/30 04:29:17;;;;;;;7.15;2.70;;;2.30;78.30;;;;;;5043485;28;20033;-66
2021/11/30 04:31:43;;;;;;;4.38;2.65;;;2.30;78.30;;;;;;5039409;28;20036;-66
2021/11/30 04:34:09;;;;;;;3.80;2.35;;;2.30;78.20;;;;;;5003343;28;1116729;-66
2021/11/30 04:36:35;;;;;;;3.75;2.13;;;2.30;78.30;;;;;;5034004;28;21382;-67
2021/11/30 04:39:01;;;;;;;3.30;2.53;;;2.30;78.10;;;;;;5035790;28;20074;-68
2021/11/30 04:41:26;;;;;;;4.53;2.50;;;2.20;78.10;;;;;;5041153;28;20042;-66
2021/11/30 04:43:52;;;;;;;3.22;2.38;;;2.20;78.90;;;;;;5043043;28;20037;-66
2021/11/30 04:46:22;;;;;;;4.20;2.70;;;2.30;78.10;;;;;;5040983;28;20037;-66
2021/11/30 04:49:12;;;;;;;3.90;2.50;;;2.30;78.10;;;;;;5039415;28;20041;-65
2021/11/30 04:51:36;;;;;;;4.60;2.80;;;2.20;78.10;;;;;;5037229;28;20045;-66
2021/11/30 04:54:02;;;;;;;4.90;2.60;;;2.20;78.10;;;;;;5041230;28;20048;-66
2021/11/30 04:56:28;;;;;;;4.82;2.63;;;2.30;78.20;;;;;;5042655;28;20052;-66
2021/11/30 04:58:54;;;;;;;4.03;2.60;;;2.20;79.00;;;;;;5042517;28;20086;-66
2021/11/30 05:01:20;;;;;;;5.22;2.50;;;2.30;78.20;;;;;;5040927;28;20609;-66
2021/11/30 05:03:48;;;;;;;4.35;2.72;;;2.30;78.20;;;;;;5039047;28;20064;-66
2021/11/30 05:06:14;;;;;;;2.90;2.20;;;2.20;78.10;;;;;;5034549;28;20446;-65
2021/11/30 05:08:40;;;;;;;7.05;2.90;;;2.20;78.10;;;;;;5037642;28;20033;-66
2021/11/30 05:11:06;;;;;;;5.03;2.58;;;2.30;78.10;;;;;;5034582;28;20456;-66
2021/11/30 05:13:31;;;;;;;4.95;2.50;;;2.30;78.10;;;;;;5041898;28;20037;-66
2021/11/30 05:15:57;;;;;;;4.47;2.22;;;2.30;78.10;;;;;;5043721;28;20511;-66
2021/11/30 05:18:23;;;;;;;5.28;2.90;;;2.30;78.00;;;;;;5039935;28;20659;-66
2021/11/30 05:20:50;;;;;;;6.50;2.50;;;2.30;78.00;;;;;;5040568;28;20067;-66
2021/11/30 05:23:25;;;;;;;4.68;2.80;;;2.30;77.90;;;;;;5039019;28;20029;-66
2021/11/30 05:25:51;;;;;;;4.97;2.42;;;2.30;77.80;;;;;;5040519;28;20049;-66
2021/11/30 05:28:17;;;;;;;5.60;2.70;;;2.30;77.80;;;;;;5041065;28;20041;-66
2021/11/30 05:30:43;;;;;;;4.13;2.33;;;2.30;77.80;;;;;;5042629;28;20041;-66
2021/11/30 05:33:10;;;;;;;6.93;2.70;;;2.30;77.80;;;;;;5043057;28;20487;-65
2021/11/30 05:35:37;;;;;;;5.05;2.30;;;2.30;77.80;;;;;;5039016;28;20059;-66
2021/11/30 05:38:03;;;;;;;9.27;2.67;;;2.30;77.70;;;;;;5039982;28;21066;-68
2021/11/30 05:40:29;;;;;;;5.18;2.60;;;2.30;77.50;;;;;;5039405;28;20040;-66
2021/11/30 05:42:54;;;;;;;3.95;3.10;;;2.40;77.50;;;;;;5041988;28;20500;-66
2021/11/30 05:45:20;;;;;;;3.17;2.53;;;2.40;77.30;;;;;;5040012;28;20502;-68
2021/11/30 05:47:46;;;;;;;12.63;6.80;;;2.40;77.30;;;;;;5041831;28;20036;-66
2021/11/30 05:50:12;;;;;;;6.20;3.78;;;2.40;77.40;;;;;;5037173;28;20029;-67
2021/11/30 05:52:38;;;;;;;18.48;8.93;;;2.40;77.30;;;;;;5041355;28;20040;-66
2021/11/30 05:55:05;;;;;;;6.78;3.60;;;2.40;77.10;;;;;;5043057;28;20040;-68
2021/11/30 05:57:32;;;;;;;8.60;3.67;;;2.40;77.10;;;;;;5042364;28;20067;-68
2021/11/30 06:00:01;;;;;;;5.32;3.00;;;2.40;76.70;;;;;;5040081;28;20045;-67
2021/11/30 06:02:30;;;;;;;6.22;2.58;;;2.40;76.90;;;;;;5042523;28;20037;-67
2021/11/30 06:04:56;;;;;;;3.80;2.90;;;2.40;76.90;;;;;;5039250;28;20041;-67
2021/11/30 06:07:22;;;;;;;3.13;2.40;;;2.40;76.80;;;;;;5041745;28;20032;-68
2021/11/30 06:09:47;;;;;;;5.65;2.80;;;2.40;76.80;;;;;;5040405;28;20041;-67
2021/11/30 06:12:13;;;;;;;5.25;2.60;;;2.40;76.70;;;;;;5040789;28;20064;-67
2021/11/30 06:14:39;;;;;;;3.92;2.50;;;2.40;76.80;;;;;;5042275;28;20120;-67
2021/11/30 06:17:06;;;;;;;3.20;2.20;;;2.40;76.70;;;;;;5045833;28;20041;-67
2021/11/30 06:19:34;;;;;;;5.13;2.22;;;2.40;76.60;;;;;;5045341;28;20048;-67
2021/11/30 06:22:00;;;;;;;5.68;2.63;;;2.40;76.60;;;;;;5045386;28;20037;-67
2021/11/30 06:24:26;;;;;;;4.22;2.55;;;2.40;76.60;;;;;;5044374;28;20060;-67
2021/11/30 06:26:52;;;;;;;6.18;2.35;;;2.40;76.40;;;;;;5045093;28;20572;-67
2021/11/30 06:29:18;;;;;;;6.30;2.28;;;2.40;76.10;;;;;;5045512;28;20029;-67
2021/11/30 06:31:44;;;;;;;5.00;2.17;;;2.40;76.20;;;;;;5042386;28;20036;-65
2021/11/30 06:34:09;;;;;;;3.42;2.28;;;2.40;76.20;;;;;;5044733;28;20033;-67
2021/11/30 06:36:35;;;;;;;5.75;2.13;;;2.40;76.00;;;;;;5043784;28;20064;-67
2021/11/30 06:39:01;;;;;;;3.55;2.00;;;2.40;76.10;;;;;;5044967;28;20088;-67
2021/11/30 06:41:26;;;;;;;4.60;2.10;;;2.40;75.90;;;;;;5044373;28;20037;-66
2021/11/30 06:43:52;;;;;;;3.75;2.22;;;2.40;75.90;;;;;;5042367;28;20112;-67
2021/11/30 06:46:19;;;;;;;4.03;2.28;;;2.40;76.00;;;;;;5040777;28;20068;-67
2021/11/30 06:48:45;;;;;;;3.45;2.00;;;2.40;75.90;;;;;;5042697;28;20061;-67
2021/11/30 06:51:11;;;;;;;3.38;2.13;;;2.40;75.90;;;;;;5045175;28;20656;-67
2021/11/30 06:53:36;;;;;;;4.38;2.20;;;2.40;75.80;;;;;;5043980;28;20052;-66
2021/11/30 06:56:03;;;;;;;5.63;2.08;;;2.40;75.70;;;;;;5043579;28;20072;-66
2021/11/30 06:58:28;;;;;;;3.63;2.40;;;2.40;75.30;;;;;;5043297;28;20032;-67
2021/11/30 07:00:54;;;;;;;4.88;2.97;;;2.40;75.30;;;;;;5037640;28;20033;-67
2021/11/30 07:03:21;;;;;;;2.88;1.88;;;2.40;75.20;;;;;;5043827;28;20458;-66
2021/11/30 07:05:52;;;;;;;7.20;2.40;;;2.50;75.40;;;;;;5042367;28;20055;-67
2021/11/30 07:08:48;;;;;;;5.53;2.33;;;2.50;75.20;;;;;;5037759;28;20120;-66
2021/11/30 07:11:19;;;;;;;5.57;2.03;;;2.50;75.00;;;;;;5040229;28;20423;-66
2021/11/30 07:13:45;;;;;;;4.03;2.03;;;2.50;75.00;;;;;;5043198;28;20033;-66
2021/11/30 07:16:11;;;;;;;3.72;1.80;;;2.50;75.00;;;;;;5036371;28;20751;-66
2021/11/30 07:18:37;;;;;;;5.25;2.17;;;2.50;74.90;;;;;;5017852;28;20158;-63
2021/11/30 07:21:03;;;;;;;3.35;2.15;;;2.50;74.60;;;;;;5024692;28;20124;-65
2021/11/30 07:23:30;;;;;;;3.88;2.70;;;2.50;74.80;;;;;;5024124;28;20113;-66
2021/11/30 07:25:56;;;;;;;3.00;2.08;;;2.60;74.80;;;;;;5032063;28;20045;-67
2021/11/30 07:28:29;;;;;;;3.97;2.03;;;2.50;74.80;;;;;;5030191;28;20033;-66
2021/11/30 07:31:05;;;;;;;3.22;2.22;;;2.60;74.60;;;;;;5032020;28;20088;-66
2021/11/30 07:33:33;;;;;;;4.88;2.80;;;2.60;74.60;;;;;;5037364;28;20029;-65
2021/11/30 07:36:00;;;;;;;5.88;2.40;;;2.60;74.50;;;;;;5039524;28;20110;-66
2021/11/30 07:38:26;;;;;;;3.40;2.30;;;2.60;74.50;;;;;;5034594;28;20064;-67
2021/11/30 07:40:51;;;;;;;4.57;2.40;;;2.60;74.60;;;;;;5035499;28;20103;-67
2021/11/30 07:43:17;;;;;;;3.90;2.60;;;2.60;74.80;;;;;;5028345;28;20037;-67
2021/11/30 07:45:43;;;;;;;6.07;3.38;;;2.60;74.90;;;;;;5032212;28;20102;-66
2021/11/30 07:48:10;;;;;;;4.65;2.53;;;2.60;75.20;;;;;;5030370;28;20037;-66
2021/11/30 07:50:36;;;;;;;3.55;2.65;;;2.60;75.10;;;;;;5030540;28;20033;-67
2021/11/30 07:53:02;;;;;;;5.75;3.00;;;2.60;75.20;;;;;;5029266;28;20033;-65
2021/11/30 07:55:27;;;;;;;5.57;2.90;;;2.60;75.30;;;;;;5032773;28;20116;-67
2021/11/30 07:57:53;;;;;;;4.65;2.88;;;2.60;75.50;;;;;;5027323;28;20496;-66
2021/11/30 08:00:20;;;;;;;5.03;2.92;;;2.50;75.50;;;;;;5035344;28;20725;-66
2021/11/30 08:02:46;;;;;;;3.50;2.70;;;2.50;75.70;;;;;;5031305;28;20044;-66
2021/11/30 08:05:13;;;;;;;5.80;2.70;;;2.50;75.90;;;;;;5033441;28;20044;-66
2021/11/30 08:07:40;;;;;;;5.20;3.22;;;2.50;76.00;;;;;;5031159;28;20160;-67
2021/11/30 08:10:09;;;;;;;4.60;3.00;;;2.50;76.30;;;;;;5028766;28;20524;-66
2021/11/30 08:12:35;;;;;;;5.13;3.35;;;2.40;76.50;;;;;;5030552;28;20033;-68
2021/11/30 08:15:03;;;;;;;6.25;3.92;;;2.40;76.70;;;;;;5038222;28;20040;-67
2021/11/30 08:17:28;;;;;;;5.72;3.83;;;2.40;77.10;;;;;;5027035;28;20041;-66
2021/11/30 08:19:54;;;;;;;5.22;3.60;;;2.30;77.40;;;;;;5030233;28;20451;-66
2021/11/30 08:22:20;;;;;;;6.65;3.25;;;2.30;77.70;;;;;;5037399;28;20548;-67
2021/11/30 08:24:45;;;;;;;5.30;3.20;;;2.30;77.60;;;;;;5038818;28;20029;-67
2021/11/30 08:27:12;;;;;;;4.10;2.95;;;2.20;77.80;;;;;;5037407;28;20125;-67
2021/11/30 08:29:42;;;;;;;6.38;2.95;;;2.20;78.00;;;;;;5036443;28;20056;-69
2021/11/30 08:32:09;;;;;;;3.20;2.65;;;2.20;78.20;;;;;;5037856;28;20057;-67
2021/11/30 08:34:36;;;;;;;5.57;3.08;;;2.20;78.30;;;;;;5036780;28;20029;-68
2021/11/30 08:37:02;;;;;;;5.15;3.10;;;2.20;78.60;;;;;;5035797;28;20034;-67
2021/11/30 08:39:28;;;;;;;4.40;2.80;;;2.10;78.80;;;;;;5036967;28;20032;-68
2021/11/30 08:41:53;;;;;;;4.53;2.85;;;2.10;79.00;;;;;;5040063;28;20413;-68
2021/11/30 08:44:20;;;;;;;9.23;2.90;;;2.10;79.30;;;;;;5040571;28;21118;-67
2021/11/30 08:46:46;;;;;;;4.15;2.70;;;2.10;79.30;;;;;;5040338;28;20043;-68
2021/11/30 08:49:12;;;;;;;4.85;3.10;;;2.10;79.30;;;;;;5038582;28;20037;-68
2021/11/30 08:51:38;;;;;;;4.22;2.47;;;2.10;79.30;;;;;;5045119;28;20033;-66
2021/11/30 08:54:04;;;;;;;3.40;2.50;;;2.10;80.50;;;;;;5027940;28;20048;-67
2021/11/30 08:56:29;;;;;;;3.25;2.50;;;2.00;79.40;;;;;;5040843;28;20032;-67
2021/11/30 08:58:55;;;;;;;3.55;2.50;;;2.00;79.50;;;;;;5040768;28;20124;-67
2021/11/30 09:01:21;;;;;;;3.72;2.30;;;2.10;79.70;;;;;;5040902;28;20025;-65
2021/11/30 09:03:47;;;;;;;4.75;2.70;;;2.10;79.50;;;;;;5037383;28;20086;-67
2021/11/30 09:06:13;;;;;;;4.38;2.72;;;2.10;79.60;;;;;;5039071;28;20191;-67
2021/11/30 09:08:38;;;;;;;2.58;2.10;;;2.10;79.50;;;;;;5041895;28;20029;-66
2021/11/30 09:11:04;;;;;;;5.40;2.45;;;2.10;79.50;;;;;;5037400;28;20033;-65
2021/11/30 09:13:29;;;;;;;3.42;2.42;;;2.20;79.40;;;;;;5036199;28;20025;-67
2021/11/30 09:15:55;;;;;;;5.88;2.80;;;2.20;79.40;;;;;;5039334;28;20033;-67
2021/11/30 09:18:21;;;;;;;2.70;2.20;;;2.20;79.50;;;;;;5045483;28;20382;-67
2021/11/30 09:20:47;;;;;;;4.75;2.97;;;2.20;79.40;;;;;;5042854;28;20080;-67
2021/11/30 09:23:13;;;;;;;4.30;2.38;;;2.20;79.40;;;;;;5045634;28;20032;-68
2021/11/30 09:25:38;;;;;;;4.50;2.20;;;2.20;79.30;;;;;;5046293;28;20120;-68
2021/11/30 09:28:04;;;;;;;4.07;2.25;;;2.30;79.30;;;;;;5047355;28;20132;-67
2021/11/30 09:30:33;;;;;;;4.80;2.60;;;2.30;79.20;;;;;;5047420;28;20504;-68
2021/11/30 09:32:59;;;;;;;3.92;2.15;;;2.30;79.10;;;;;;5047546;28;20120;-67
2021/11/30 09:35:25;;;;;;;3.00;2.38;;;2.30;79.10;;;;;;5046346;28;20476;-68
2021/11/30 09:37:52;;;;;;;5.63;2.17;;;2.30;79.00;;;;;;5046921;28;20051;-68
2021/11/30 09:40:22;;;;;;;5.43;2.40;;;2.30;79.10;;;;;;5047331;28;20029;-68
2021/11/30 09:42:49;;;;;;;3.97;2.40;;;2.30;79.20;;;;;;5046082;28;20040;-68
2021/11/30 09:45:15;;;;;;;3.88;2.15;;;2.40;79.10;;;;;;5047471;28;20078;-68
2021/11/30 09:47:42;;;;;;;3.83;2.30;;;2.40;79.00;;;;;;5046816;28;20029;-68
2021/11/30 09:50:12;;;;;;;4.80;2.10;;;2.40;79.90;;;;;;5046824;28;20040;-68
2021/11/30 09:52:38;;;;;;;2.72;2.17;;;2.40;79.00;;;;;;5046772;28;20037;-68
2021/11/30 09:55:05;;;;;;;3.53;2.13;;;2.50;79.00;;;;;;5040921;28;20049;-67
2021/11/30 09:57:31;;;;;;;4.45;2.17;;;2.40;79.00;;;;;;5041092;28;20029;-67
2021/11/30 09:59:57;;;;;;;4.05;2.40;;;2.50;79.10;;;;;;5039800;28;20036;-68
2021/11/30 10:02:23;;;;;;;2.33;1.85;;;2.50;79.00;;;;;;5043176;28;20029;-68
2021/11/30 10:04:48;;;;;;;3.38;2.08;;;2.50;78.90;;;;;;5039436;28;20102;-68
2021/11/30 10:07:14;;;;;;;3.60;2.00;;;2.50;78.90;;;;;;5042503;28;20116;-68
2021/11/30 10:09:40;;;;;;;5.78;2.22;;;2.50;78.80;;;;;;5045960;28;20033;-68
2021/11/30 10:12:09;;;;;;;5.35;2.47;;;2.50;78.80;;;;;;5040938;28;20077;-68
2021/11/30 10:14:41;;;;;;;4.03;2.30;;;2.50;78.90;;;;;;5044278;28;20998;-67
2021/11/30 10:17:19;;;;;;;2.95;1.90;;;2.50;79.70;;;;;;5043829;28;20127;-66
2021/11/30 10:19:57;;;;;;;4.13;1.85;;;2.50;78.90;;;;;;5045614;28;20037;-68
2021/11/30 10:22:39;;;;;;;3.58;1.92;;;2.50;78.80;;;;;;5044211;28;20399;-68
2021/11/30 10:25:26;;;;;;;2.35;1.38;;;2.50;78.70;;;;;;5043582;28;20045;-68
2021/11/30 10:27:58;;;;;;;2.58;1.77;;;2.50;78.50;;;;;;5044828;28;20102;-68
2021/11/30 10:30:26;;;;;;;3.80;1.95;;;2.50;78.50;;;;;;5046021;28;20039;-68
2021/11/30 10:32:54;;;;;;;2.65;1.70;;;2.60;78.30;;;;;;5045851;28;20033;-68
2021/11/30 10:35:24;;;;;;;4.07;1.60;;;2.60;78.30;;;;;;5044043;28;20411;-67
2021/11/30 10:37:49;;;;;;;4.47;1.58;;;2.70;78.10;;;;;;5044313;28;20086;-67
2021/11/30 10:40:22;;;;;;;2.55;1.42;;;2.70;78.00;;;;;;5039495;28;20451;-68
2021/11/30 10:42:59;;;;;;;2.75;1.50;;;2.80;77.40;;;;;;5040664;28;20069;-68
2021/11/30 10:45:25;;;;;;;4.57;1.80;;;2.80;76.80;;;;;;5043433;28;20033;-68
2021/11/30 10:47:50;;;;;;;3.90;1.80;;;2.90;76.80;;;;;;5041771;28;20037;-67
2021/11/30 10:50:22;;;;;;;2.88;1.33;;;3.00;76.90;;;;;;5045887;28;20117;-68
2021/11/30 10:52:50;;;;;;;4.32;1.48;;;3.00;76.30;;;;;;5046304;28;20033;-67
2021/11/30 10:55:18;;;;;;;2.55;2.10;;;3.10;76.10;;;;;;5045643;28;20109;-68
2021/11/30 10:57:47;;;;;;;2.83;1.45;;;3.10;76.00;;;;;;5045726;28;20118;-68
2021/11/30 11:00:20;;;;;;;3.20;1.40;;;3.20;75.10;;;;;;5043103;28;20033;-68
2021/11/30 11:03:21;;;;;;;2.95;1.50;;;3.20;74.80;;;;;;5046102;28;20052;-67
2021/11/30 11:06:23;;;;;;;2.50;1.42;;;3.30;74.60;;;;;;5037783;28;20463;-67
2021/11/30 11:08:40;;;;;;;4.97;1.73;;;3.30;74.60;;;;;;5048401;28;20112;-68
2021/11/30 11:11:06;;;;;;;6.35;1.90;;;3.40;74.90;;;;;;5041968;28;20032;-67
2021/11/30 11:13:38;;;;;;;4.75;1.77;;;3.40;73.60;;;;;;5048116;28;20035;-68
2021/11/30 11:16:26;;;;;;;6.47;2.20;;;3.40;74.10;;;;;;5049610;28;20033;-68
2021/11/30 11:18:55;;;;;;;4.90;2.20;;;3.50;73.90;;;;;;5049078;28;20032;-67
2021/11/30 11:21:27;;;;;;;2.67;2.00;;;3.50;74.10;;;;;;5049649;28;20033;-68
2021/11/30 11:24:12;;;;;;;4.38;2.20;;;3.50;73.90;;;;;;5050085;28;20768;-68
2021/11/30 11:26:39;;;;;;;3.28;1.77;;;3.50;73.70;;;;;;5047543;28;20443;-68
2021/11/30 11:29:13;;;;;;;4.20;2.00;;;3.50;73.40;;;;;;5048985;28;20036;-66
2021/11/30 11:31:41;;;;;;;4.93;2.65;;;3.50;73.50;;;;;;5048960;28;20040;-68
2021/11/30 11:34:09;;;;;;;3.58;1.98;;;3.50;74.00;;;;;;5048630;28;20041;-67
2021/11/30 11:36:34;;;;;;;4.22;1.98;;;3.50;73.60;;;;;;5044258;28;20025;-67
2021/11/30 11:39:01;;;;;;;3.88;2.33;;;3.50;74.00;;;;;;5045983;28;20051;-67
2021/11/30 11:41:28;;;;;;;3.65;2.35;;;3.40;73.90;;;;;;5049922;28;20527;-68
2021/11/30 11:43:55;;;;;;;3.28;2.00;;;3.50;74.10;;;;;;5044317;28;20067;-67
2021/11/30 11:46:21;;;;;;;4.97;1.60;;;3.50;73.80;;;;;;5047686;28;20076;-68
2021/11/30 11:48:54;;;;;;;2.30;1.67;;;3.50;74.10;;;;;;5047472;28;20495;-68
2021/11/30 11:51:20;;;;;;;3.53;1.80;;;3.40;73.60;;;;;;5048797;28;20029;-68
2021/11/30 11:53:52;;;;;;;2.72;1.65;;;3.50;73.80;;;;;;5047845;28;20328;-68
2021/11/30 11:56:30;;;;;;;6.40;1.42;;;3.40;73.80;;;;;;5048756;28;20040;-68
2021/11/30 11:59:13;;;;;;;2.33;1.60;;;3.50;74.00;;;;;;5047977;28;20052;-68
2021/11/30 12:01:42;;;;;;;5.20;1.60;;;3.50;74.30;;;;;;5048434;28;20167;-67
2021/11/30 12:04:09;;;;;;;3.45;1.50;;;3.50;73.80;;;;;;5046079;28;20124;-68
2021/11/30 12:06:49;;;;;;;2.80;1.58;;;3.50;73.40;;;;;;5046379;28;20044;-67
2021/11/30 12:09:18;;;;;;;3.78;1.50;;;3.50;73.80;;;;;;5048520;28;20492;-68
2021/11/30 12:11:48;;;;;;;4.47;1.55;;;3.60;73.70;;;;;;5043997;28;20678;-67
2021/11/30 12:14:22;;;;;;;1.95;1.50;;;3.60;73.50;;;;;;5048976;28;20059;-66
2021/11/30 12:17:07;;;;;;;2.10;1.42;;;3.60;73.60;;;;;;5047723;28;20040;-67
2021/11/30 12:19:41;;;;;;;2.45;1.65;;;3.60;73.40;;;;;;5048601;28;20563;-67
2021/11/30 12:22:09;;;;;;;3.63;1.60;;;3.60;73.60;;;;;;5047235;28;20029;-66
2021/11/30 12:24:44;;;;;;;2.83;1.50;;;3.60;73.80;;;;;;5047247;28;20025;-67
2021/11/30 12:27:16;;;;;;;3.95;1.50;;;3.60;73.90;;;;;;5047197;28;20175;-68
2021/11/30 12:29:42;;;;;;;2.10;1.30;;;3.60;74.00;;;;;;5049061;28;20508;-68
2021/11/30 12:32:20;;;;;;;5.28;1.42;;;3.60;73.80;;;;;;5046500;28;20466;-67
2021/11/30 12:34:49;;;;;;;6.78;1.90;;;3.60;74.10;;;;;;5048207;28;20198;-67
2021/11/30 12:37:22;;;;;;;4.22;1.92;;;3.60;74.30;;;;;;5045528;28;20045;-67
2021/11/30 12:39:57;;;;;;;2.15;1.40;;;3.60;75.30;;;;;;5047795;28;20044;-68
2021/11/30 12:42:24;;;;;;;2.75;1.60;;;3.60;74.50;;;;;;5046657;28;20037;-68
2021/11/30 12:44:49;;;;;;;2.70;1.42;;;3.60;74.60;;;;;;5044195;28;20033;-67
2021/11/30 12:47:24;;;;;;;3.08;1.52;;;3.60;74.60;;;;;;5046707;28;20092;-68
2021/11/30 12:49:50;;;;;;;1.65;1.40;;;3.60;74.60;;;;;;5047255;28;20044;-67
2021/11/30 12:52:18;;;;;;;1.83;1.52;;;3.60;74.80;;;;;;5046231;28;21827;-67
2021/11/30 12:55:14;;;;;;;3.08;1.50;;;3.50;74.90;;;;;;5046728;28;20037;-67
2021/11/30 12:57:42;;;;;;;4.78;1.65;;;3.60;75.00;;;;;;5047236;28;20060;-67
2021/11/30 13:00:13;;;;;;;2.55;1.42;;;3.60;75.20;;;;;;5047264;28;20448;-68
2021/11/30 13:02:41;;;;;;;2.97;1.75;;;3.60;75.70;;;;;;5047736;28;20025;-67
2021/11/30 13:05:10;;;;;;;4.75;1.75;;;3.60;75.80;;;;;;5045864;28;20033;-67
2021/11/30 13:08:01;;;;;;;2.67;1.48;;;3.60;75.80;;;;;;5042015;28;20036;-68